Time;durP1;ratioP1;P1;durP2;ratioP2;P2;SDS_P1;SDS_P2;PMS_P1;PMS_P2;Temp;Humidity;BMP_temperature;BMP_pressure;BME280_temperature;BME280_humidity;BME280_pressure;Samples;Min_cycle;Max_cycle;Signal;HPM_P1;HPM_P2
2021/01/16 00:01:59;;;;;;;21.50;10.40;;;-7.10;85.00;;;;;;4957364;28;20110;-81
2021/01/16 00:04:24;;;;;;;28.60;11.18;;;-7.10;85.00;;;;;;4974083;28;20549;-80
2021/01/16 00:06:50;;;;;;;24.23;11.02;;;-7.10;85.00;;;;;;4975354;28;20027;-80
2021/01/16 00:09:16;;;;;;;31.85;11.38;;;-7.10;85.00;;;;;;4957772;28;20035;-80
2021/01/16 00:11:41;;;;;;;26.35;11.52;;;-7.00;85.00;;;;;;4975191;28;20022;-80
2021/01/16 00:14:07;;;;;;;40.38;15.60;;;-7.00;85.00;;;;;;4975186;28;20034;-81
2021/01/16 00:16:34;;;;;;;30.00;12.77;;;-7.00;85.00;;;;;;4974501;28;20026;-81
2021/01/16 00:19:00;;;;;;;30.55;13.82;;;-7.00;85.00;;;;;;4974243;28;20481;-82
2021/01/16 00:21:25;;;;;;;29.75;12.50;;;-7.00;85.00;;;;;;4974904;28;20034;-81
2021/01/16 00:23:51;;;;;;;31.65;12.85;;;-7.00;84.90;;;;;;4975334;28;20499;-81
2021/01/16 00:26:17;;;;;;;48.83;19.60;;;-7.00;85.00;;;;;;4974550;28;20029;-81
2021/01/16 00:28:42;;;;;;;35.78;14.40;;;-7.00;85.00;;;;;;4972924;28;20023;-81
2021/01/16 00:31:08;;;;;;;27.58;12.93;;;-6.90;85.00;;;;;;4975002;28;20054;-81
2021/01/16 00:33:35;;;;;;;30.98;13.23;;;-6.90;85.00;;;;;;4975290;28;20105;-81
2021/01/16 00:36:05;;;;;;;26.73;12.30;;;-6.90;84.90;;;;;;4975483;28;20026;-82
2021/01/16 00:38:38;;;;;;;31.58;13.10;;;-6.90;85.10;;;;;;4975423;28;20037;-81
2021/01/16 00:41:04;;;;;;;29.55;12.77;;;-6.90;84.90;;;;;;4975285;28;20019;-82
2021/01/16 00:43:30;;;;;;;31.33;13.15;;;-6.90;84.80;;;;;;4975729;28;20468;-81
2021/01/16 00:45:56;;;;;;;29.17;11.70;;;-6.90;84.80;;;;;;4957970;28;20049;-82
2021/01/16 00:48:23;;;;;;;27.20;12.60;;;-6.90;84.70;;;;;;4958038;28;20077;-82
2021/01/16 00:50:50;;;;;;;30.73;11.60;;;-6.90;84.70;;;;;;4975596;28;20050;-82
2021/01/16 00:53:17;;;;;;;27.00;11.40;;;-6.90;84.80;;;;;;4975268;28;20504;-82
2021/01/16 00:55:43;;;;;;;34.20;12.45;;;-6.90;84.70;;;;;;4975141;28;20078;-81
2021/01/16 00:58:11;;;;;;;27.55;12.25;;;-6.90;84.70;;;;;;4975141;28;20023;-81
2021/01/16 01:00:38;;;;;;;26.58;11.52;;;-6.90;84.70;;;;;;4975153;28;20023;-81
2021/01/16 01:03:04;;;;;;;28.33;11.38;;;-6.90;84.80;;;;;;4974433;28;20074;-82
2021/01/16 01:05:30;;;;;;;28.70;11.10;;;-6.90;84.70;;;;;;4957773;28;20118;-81
2021/01/16 01:07:56;;;;;;;25.73;11.82;;;-6.90;84.70;;;;;;4974738;28;20520;-81
2021/01/16 01:10:31;;;;;;;29.55;12.07;;;-6.90;84.70;;;;;;4974574;28;20027;-82
2021/01/16 01:12:57;;;;;;;25.65;12.73;;;-6.80;84.70;;;;;;4974915;28;20385;-80
2021/01/16 01:15:23;;;;;;;30.77;13.20;;;-6.90;84.70;;;;;;4957495;28;20054;-80
2021/01/16 01:17:53;;;;;;;29.55;13.25;;;-6.90;84.60;;;;;;4974790;28;20023;-81
2021/01/16 01:20:19;;;;;;;28.98;12.32;;;-6.90;84.60;;;;;;4957754;28;20019;-81
2021/01/16 01:22:47;;;;;;;29.83;11.93;;;-6.90;84.60;;;;;;4975080;28;20359;-81
2021/01/16 01:25:13;;;;;;;28.08;12.23;;;-6.90;84.60;;;;;;4974674;28;20414;-80
2021/01/16 01:27:39;;;;;;;33.30;12.73;;;-6.90;84.70;;;;;;4957195;28;20385;-79
2021/01/16 01:30:06;;;;;;;28.08;12.48;;;-6.80;84.80;;;;;;4974489;28;20034;-81
2021/01/16 01:32:33;;;;;;;25.65;11.88;;;-6.80;84.70;;;;;;4974714;28;20046;-80
2021/01/16 01:34:59;;;;;;;29.58;13.25;;;-6.80;84.70;;;;;;4957136;28;20166;-80
2021/01/16 01:37:25;;;;;;;25.45;12.38;;;-6.80;84.70;;;;;;4973985;28;20030;-80
2021/01/16 01:39:51;;;;;;;27.85;12.02;;;-6.80;84.70;;;;;;4957097;28;20022;-80
2021/01/16 01:42:18;;;;;;;27.20;12.60;;;-6.80;84.70;;;;;;4974434;28;20094;-80
2021/01/16 01:44:45;;;;;;;24.92;12.18;;;-6.80;84.80;;;;;;4957106;28;20031;-81
2021/01/16 01:47:16;;;;;;;27.88;12.15;;;-6.80;84.70;;;;;;4974951;28;20031;-80
2021/01/16 01:49:44;;;;;;;26.33;12.32;;;-6.80;84.70;;;;;;4973306;28;20026;-80
2021/01/16 01:52:10;;;;;;;24.08;10.18;;;-6.80;84.70;;;;;;4974278;28;20045;-80
2021/01/16 01:54:37;;;;;;;25.52;11.05;;;-6.80;84.60;;;;;;4974531;28;20035;-80
2021/01/16 01:57:08;;;;;;;25.30;10.73;;;-6.80;84.60;;;;;;4974513;28;20077;-80
2021/01/16 01:59:35;;;;;;;23.10;11.15;;;-6.80;84.60;;;;;;4957216;28;20019;-80
2021/01/16 02:02:01;;;;;;;21.23;11.20;;;-6.80;84.60;;;;;;4956746;28;20027;-80
2021/01/16 02:04:31;;;;;;;26.55;11.98;;;-6.80;84.50;;;;;;4974178;28;20038;-80
2021/01/16 02:07:00;;;;;;;26.52;11.88;;;-6.80;84.50;;;;;;4957038;28;20058;-81
2021/01/16 02:09:27;;;;;;;24.52;11.82;;;-6.80;84.50;;;;;;4974586;28;20084;-80
2021/01/16 02:11:56;;;;;;;23.70;10.95;;;-6.80;84.60;;;;;;4974186;28;20046;-81
2021/01/16 02:14:29;;;;;;;27.65;11.38;;;-6.70;84.60;;;;;;4974607;28;20038;-80
2021/01/16 02:17:00;;;;;;;29.63;11.52;;;-6.70;84.60;;;;;;4960132;28;20038;-80
2021/01/16 02:19:53;;;;;;;22.63;11.13;;;-6.70;84.50;;;;;;4977734;28;20030;-80
2021/01/16 02:22:20;;;;;;;24.27;11.20;;;-6.70;84.50;;;;;;4977567;28;20077;-80
2021/01/16 02:25:14;;;;;;;24.38;10.77;;;-6.70;84.50;;;;;;4976037;28;20054;-79
2021/01/16 02:27:58;;;;;;;22.52;10.48;;;-6.70;84.50;;;;;;4977518;28;20023;-80
2021/01/16 02:30:25;;;;;;;24.25;10.35;;;-6.70;84.40;;;;;;4959970;28;20081;-80
2021/01/16 02:32:53;;;;;;;26.75;10.98;;;-6.70;84.40;;;;;;4977059;28;20074;-80
2021/01/16 02:35:21;;;;;;;21.00;10.80;;;-6.70;84.40;;;;;;4977621;28;20123;-81
2021/01/16 02:38:00;;;;;;;20.67;10.85;;;-6.70;84.30;;;;;;4975971;28;20127;-80
2021/01/16 02:40:46;;;;;;;22.90;10.25;;;-6.70;84.40;;;;;;4977472;28;20023;-82
2021/01/16 02:43:21;;;;;;;24.05;10.70;;;-6.70;84.30;;;;;;4960336;28;20086;-81
2021/01/16 02:46:07;;;;;;;23.30;9.75;;;-6.70;84.20;;;;;;4977362;28;20019;-81
2021/01/16 02:49:11;;;;;;;21.58;9.85;;;-6.70;84.20;;;;;;4959913;28;20039;-81
2021/01/16 02:52:04;;;;;;;20.92;9.88;;;-6.70;84.20;;;;;;4977437;28;20473;-81
2021/01/16 02:54:41;;;;;;;24.70;9.40;;;-6.70;84.20;;;;;;4977121;28;20033;-81
2021/01/16 02:57:09;;;;;;;21.30;10.23;;;-6.70;84.20;;;;;;4976926;28;20351;-81
2021/01/16 02:59:42;;;;;;;26.45;11.00;;;-6.70;84.20;;;;;;4976792;28;20022;-80
2021/01/16 03:02:11;;;;;;;20.15;10.18;;;-6.70;84.30;;;;;;4976761;28;20027;-81
2021/01/16 03:04:37;;;;;;;27.02;10.52;;;-6.70;84.20;;;;;;4959547;28;20094;-81
2021/01/16 03:07:06;;;;;;;24.90;11.40;;;-6.70;84.20;;;;;;4959149;28;20031;-79
2021/01/16 03:09:33;;;;;;;23.25;10.38;;;-6.70;84.20;;;;;;4976599;28;20046;-80
2021/01/16 03:11:59;;;;;;;26.42;11.02;;;-6.70;84.20;;;;;;4975234;28;20074;-80
2021/01/16 03:14:47;;;;;;;26.05;11.07;;;-6.70;84.20;;;;;;4975322;28;20061;-80
2021/01/16 03:17:15;;;;;;;25.60;12.13;;;-6.60;84.20;;;;;;4976404;28;20035;-80
2021/01/16 03:19:45;;;;;;;28.23;12.93;;;-6.60;84.20;;;;;;4975479;28;20417;-79
2021/01/16 03:22:40;;;;;;;25.17;11.82;;;-6.60;84.10;;;;;;4975279;28;20477;-79
2021/01/16 03:25:06;;;;;;;26.60;11.60;;;-6.60;84.20;;;;;;4949602;28;20684;-79
2021/01/16 03:27:32;;;;;;;23.73;11.82;;;-6.60;84.10;;;;;;4975309;28;20824;-80
2021/01/16 03:29:58;;;;;;;22.65;11.55;;;-6.60;84.10;;;;;;4958018;28;20105;-80
2021/01/16 03:32:24;;;;;;;26.67;12.25;;;-6.60;84.10;;;;;;4975217;28;20042;-80
2021/01/16 03:34:50;;;;;;;26.60;12.65;;;-6.60;84.10;;;;;;4975173;28;20030;-79
2021/01/16 03:37:17;;;;;;;24.83;11.45;;;-6.60;84.00;;;;;;4975206;28;20062;-81
2021/01/16 03:39:43;;;;;;;27.45;11.65;;;-6.60;84.00;;;;;;4975435;28;20023;-80
2021/01/16 03:42:09;;;;;;;23.88;11.13;;;-6.60;84.00;;;;;;4976370;28;20029;-81
2021/01/16 03:44:36;;;;;;;27.65;11.70;;;-6.60;84.00;;;;;;4976399;28;20445;-82
2021/01/16 03:47:02;;;;;;;26.00;11.45;;;-6.60;84.00;;;;;;4976125;28;20027;-81
2021/01/16 03:49:29;;;;;;;25.48;11.27;;;-6.60;84.10;;;;;;4975799;28;20540;-81
2021/01/16 03:51:55;;;;;;;25.40;11.63;;;-6.50;84.20;;;;;;4958696;28;20031;-81
2021/01/16 03:54:20;;;;;;;22.27;11.65;;;-6.50;84.30;;;;;;4976008;28;20031;-81
2021/01/16 03:56:46;;;;;;;25.48;12.00;;;-6.40;84.30;;;;;;4958184;28;20516;-81
2021/01/16 03:59:12;;;;;;;25.52;12.13;;;-6.40;84.30;;;;;;4958584;28;20030;-81
2021/01/16 04:01:38;;;;;;;24.15;11.65;;;-6.40;84.20;;;;;;4976102;28;20026;-81
2021/01/16 04:04:04;;;;;;;24.98;11.90;;;-6.40;84.20;;;;;;4976820;28;20054;-81
2021/01/16 04:06:30;;;;;;;23.98;12.82;;;-6.40;84.20;;;;;;4958630;28;20023;-81
2021/01/16 04:08:56;;;;;;;24.58;11.90;;;-6.40;84.20;;;;;;4958505;28;20031;-81
2021/01/16 04:11:22;;;;;;;28.50;12.02;;;-6.30;84.20;;;;;;4958724;28;20030;-81
2021/01/16 04:13:48;;;;;;;28.10;12.75;;;-6.30;84.30;;;;;;4975691;28;20029;-82
2021/01/16 04:16:14;;;;;;;67.38;26.58;;;-6.30;84.30;;;;;;4958317;28;20051;-80
2021/01/16 04:18:40;;;;;;;27.38;13.45;;;-6.30;84.10;;;;;;4958688;28;20034;-80
2021/01/16 04:21:06;;;;;;;30.35;13.60;;;-6.30;84.20;;;;;;4958600;28;20034;-81
2021/01/16 04:23:32;;;;;;;31.17;13.98;;;-6.30;84.10;;;;;;4975970;28;20465;-81
2021/01/16 04:25:58;;;;;;;28.05;12.73;;;-6.20;84.20;;;;;;4975567;28;20023;-82
2021/01/16 04:28:24;;;;;;;31.55;13.35;;;-6.20;84.20;;;;;;4958181;28;20117;-81
2021/01/16 04:30:50;;;;;;;27.00;12.70;;;-6.20;84.10;;;;;;4958105;28;20110;-81
2021/01/16 04:33:16;;;;;;;29.02;12.98;;;-6.20;84.10;;;;;;4957817;28;20133;-82
2021/01/16 04:35:42;;;;;;;29.30;13.15;;;-6.20;84.00;;;;;;4958214;28;20038;-82
2021/01/16 04:38:07;;;;;;;31.75;13.10;;;-6.20;84.10;;;;;;4957610;28;20035;-83
2021/01/16 04:40:33;;;;;;;31.35;14.30;;;-6.20;84.10;;;;;;4958562;28;20109;-83
2021/01/16 04:43:03;;;;;;;32.40;13.00;;;-6.10;84.20;;;;;;4976621;28;20134;-82
2021/01/16 04:45:31;;;;;;;27.65;12.55;;;-6.10;84.20;;;;;;4975515;28;20027;-82
2021/01/16 04:47:59;;;;;;;28.52;13.32;;;-6.10;84.20;;;;;;4980350;28;20023;-84
2021/01/16 04:50:30;;;;;;;29.23;13.80;;;-6.10;84.10;;;;;;4977106;28;20376;-83
2021/01/16 04:53:05;;;;;;;27.73;12.88;;;-6.10;84.10;;;;;;4979652;28;20050;-84
2021/01/16 04:55:32;;;;;;;28.05;12.02;;;-6.10;84.00;;;;;;4960862;28;20026;-84
2021/01/16 04:58:07;;;;;;;27.20;12.27;;;-6.00;84.00;;;;;;4970714;28;20121;-83
2021/01/16 05:00:35;;;;;;;25.73;11.50;;;-6.00;83.90;;;;;;4974006;28;20362;-84
2021/01/16 05:03:12;;;;;;;25.58;11.60;;;-6.00;83.90;;;;;;4988174;28;20023;-83
2021/01/16 05:05:42;;;;;;;27.02;12.68;;;-6.10;83.80;;;;;;4959976;28;20081;-83
2021/01/16 05:08:09;;;;;;;28.08;12.07;;;-6.10;83.80;;;;;;4957799;28;20374;-84
2021/01/16 05:10:40;;;;;;;28.25;13.30;;;-6.00;84.00;;;;;;4957623;28;20031;-84
2021/01/16 05:13:14;;;;;;;30.50;13.00;;;-6.00;84.00;;;;;;4974895;28;20034;-82
2021/01/16 05:15:42;;;;;;;29.75;13.63;;;-6.00;84.00;;;;;;4974319;28;20034;-82
2021/01/16 05:18:12;;;;;;;29.60;13.00;;;-6.00;84.10;;;;;;4974408;28;20477;-82
2021/01/16 05:20:40;;;;;;;25.95;12.77;;;-5.90;84.20;;;;;;4974557;28;20050;-83
2021/01/16 05:23:12;;;;;;;32.05;14.25;;;-5.90;84.10;;;;;;4956826;28;20030;-82
2021/01/16 05:25:51;;;;;;;27.33;13.52;;;-5.90;84.20;;;;;;4956892;28;20031;-82
2021/01/16 05:28:22;;;;;;;28.58;13.15;;;-5.90;84.10;;;;;;4956954;28;20481;-84
2021/01/16 05:30:52;;;;;;;28.67;14.10;;;-5.80;84.10;;;;;;4957280;28;20059;-84
2021/01/16 05:33:19;;;;;;;31.00;14.05;;;-5.80;84.10;;;;;;4956885;28;20038;-84
2021/01/16 05:35:45;;;;;;;32.13;14.13;;;-5.80;84.00;;;;;;4974927;28;20053;-83
2021/01/16 05:38:13;;;;;;;29.52;13.75;;;-5.80;84.00;;;;;;4957142;28;20126;-83
2021/01/16 05:40:39;;;;;;;29.92;14.10;;;-5.80;83.90;;;;;;4974781;28;20133;-82
2021/01/16 05:43:06;;;;;;;30.10;13.90;;;-5.80;84.00;;;;;;4974879;28;20377;-83
2021/01/16 05:45:38;;;;;;;33.42;13.82;;;-5.70;84.00;;;;;;4957189;28;20050;-84
2021/01/16 05:48:04;;;;;;;34.30;15.65;;;-5.70;84.00;;;;;;4957522;28;20027;-83
2021/01/16 05:50:33;;;;;;;29.30;14.05;;;-5.70;84.20;;;;;;4961240;28;20031;-83
2021/01/16 05:52:59;;;;;;;27.95;13.10;;;-5.70;84.10;;;;;;4960697;28;20030;-82
2021/01/16 05:55:25;;;;;;;29.25;14.45;;;-5.60;84.10;;;;;;4960680;28;20601;-83
2021/01/16 05:58:03;;;;;;;33.70;14.65;;;-5.60;84.20;;;;;;4979503;28;20122;-83
2021/01/16 06:00:34;;;;;;;34.90;14.82;;;-5.60;84.90;;;;;;4960215;28;20409;-83
2021/01/16 06:03:00;;;;;;;31.58;15.15;;;-5.50;84.30;;;;;;4960387;28;20030;-82
2021/01/16 06:05:26;;;;;;;33.30;16.20;;;-5.50;84.20;;;;;;4960453;28;20046;-83
2021/01/16 06:07:55;;;;;;;33.45;15.02;;;-5.50;84.20;;;;;;4959688;28;20430;-83
2021/01/16 06:10:22;;;;;;;32.85;14.52;;;-5.40;84.20;;;;;;4977561;28;20059;-84
2021/01/16 06:12:49;;;;;;;32.50;14.93;;;-5.40;84.30;;;;;;4959669;28;20022;-83
2021/01/16 06:15:17;;;;;;;26.75;13.50;;;-5.40;84.30;;;;;;4977100;28;20027;-84
2021/01/16 06:17:50;;;;;;;25.90;13.60;;;-5.30;84.40;;;;;;4960777;28;20034;-83
2021/01/16 06:20:20;;;;;;;28.50;13.35;;;-5.30;84.40;;;;;;4977634;28;20118;-84
2021/01/16 06:22:49;;;;;;;23.92;12.25;;;-5.20;84.40;;;;;;4976713;28;20070;-81
2021/01/16 06:25:24;;;;;;;26.73;12.77;;;-5.20;84.50;;;;;;4976824;28;20019;-82
2021/01/16 06:27:51;;;;;;;33.63;15.23;;;-5.20;84.30;;;;;;4959097;28;20503;-81
2021/01/16 06:30:21;;;;;;;32.13;15.10;;;-5.20;84.20;;;;;;4976611;28;20486;-81
2021/01/16 06:32:53;;;;;;;30.98;14.98;;;-5.10;84.30;;;;;;4962391;28;20055;-81
2021/01/16 06:35:21;;;;;;;35.10;15.07;;;-5.10;84.40;;;;;;4957331;29;20120;-81
2021/01/16 06:37:51;;;;;;;28.08;14.30;;;-5.10;84.40;;;;;;4957475;29;20027;-82
2021/01/16 06:40:34;;;;;;;42.28;19.25;;;-5.10;84.90;;;;;;4956096;29;20363;-86
2021/01/16 06:43:01;;;;;;;29.92;13.00;;;-5.00;84.50;;;;;;4956972;29;20385;-85
2021/01/16 06:45:28;;;;;;;31.85;13.82;;;-5.00;84.40;;;;;;4957243;29;20099;-82
2021/01/16 06:48:03;;;;;;;30.88;14.52;;;-5.00;84.40;;;;;;4957225;29;20026;-82
2021/01/16 06:50:35;;;;;;;46.90;22.30;;;-4.90;84.90;;;;;;4956571;29;20027;-84
2021/01/16 06:53:01;;;;;;;51.08;22.50;;;-4.90;84.20;;;;;;4957679;29;20079;-85
2021/01/16 06:55:30;;;;;;;46.70;22.15;;;-4.90;83.90;;;;;;4957480;29;20031;-84
2021/01/16 06:57:57;;;;;;;46.50;21.40;;;-5.00;83.80;;;;;;4955805;29;20031;-83
2021/01/16 07:00:23;;;;;;;59.13;25.95;;;-5.00;83.60;;;;;;4956450;28;20466;-84
2021/01/16 07:02:51;;;;;;;50.00;23.85;;;-5.00;83.50;;;;;;4957225;29;20074;-84
2021/01/16 07:05:17;;;;;;;46.08;21.67;;;-5.10;83.40;;;;;;4955742;29;20419;-84
2021/01/16 07:07:45;;;;;;;40.15;20.25;;;-5.10;83.40;;;;;;4957819;29;20102;-86
2021/01/16 07:10:13;;;;;;;38.05;18.55;;;-5.10;83.30;;;;;;4955784;29;20051;-84
2021/01/16 07:12:47;;;;;;;38.00;18.65;;;-5.10;83.20;;;;;;4956890;29;20462;-83
2021/01/16 07:15:14;;;;;;;36.53;19.02;;;-5.10;83.10;;;;;;4956981;29;20028;-84
2021/01/16 07:17:43;;;;;;;55.58;24.42;;;-5.10;83.10;;;;;;4956712;29;20030;-84
2021/01/16 07:20:10;;;;;;;48.13;23.92;;;-5.20;83.00;;;;;;4956989;29;20024;-85
2021/01/16 07:22:41;;;;;;;38.30;18.98;;;-5.20;83.10;;;;;;4967978;29;20027;-84
2021/01/16 07:25:08;;;;;;;47.25;23.10;;;-5.20;83.10;;;;;;4957204;29;20019;-85
2021/01/16 07:27:38;;;;;;;48.92;21.27;;;-5.20;83.20;;;;;;4955725;29;20053;-85
2021/01/16 07:30:07;;;;;;;46.15;21.25;;;-5.10;83.10;;;;;;4956457;29;20114;-83
2021/01/16 07:33:00;;;;;;;42.60;19.42;;;-5.20;83.00;;;;;;4955314;28;20050;-84
2021/01/16 07:35:26;;;;;;;;;;;-5.10;83.00;;;;;;4957349;29;20027;-82
2021/01/16 07:37:55;;;;;;;36.35;16.45;;;-5.10;83.10;;;;;;4955284;29;19914;-83
2021/01/16 07:40:32;;;;;;;42.13;19.05;;;-5.10;82.90;;;;;;4956695;29;20034;-84
2021/01/16 07:42:59;;;;;;;45.65;19.77;;;-5.10;82.80;;;;;;4955927;29;20027;-83
2021/01/16 07:45:25;;;;;;;37.28;17.80;;;-5.10;82.60;;;;;;4956413;29;20031;-85
2021/01/16 07:47:52;;;;;;;31.58;15.38;;;-5.10;82.40;;;;;;4954834;29;20031;-84
2021/01/16 07:50:38;;;;;;;32.78;15.27;;;-5.10;82.30;;;;;;4956196;29;20035;-83
2021/01/16 07:53:04;;;;;;;33.60;16.80;;;-5.10;82.30;;;;;;4958242;29;20037;-84
2021/01/16 07:55:36;;;;;;;33.83;15.15;;;-5.10;82.10;;;;;;4956534;29;20439;-84
2021/01/16 07:58:34;;;;;;;23.83;12.50;;;-5.10;81.70;;;;;;4939011;29;20110;-84
2021/01/16 08:01:02;;;;;;;31.25;14.38;;;-5.20;81.70;;;;;;4953324;29;20031;-84
2021/01/16 08:03:38;;;;;;;35.35;14.75;;;-5.20;81.90;;;;;;4939676;29;20027;-84
2021/01/16 08:06:31;;;;;;;24.67;12.88;;;-5.20;81.70;;;;;;4955929;28;20019;-83
2021/01/16 08:09:11;;;;;;;27.98;13.25;;;-5.20;81.70;;;;;;4966343;28;20110;-85
2021/01/16 08:11:42;;;;;;;34.15;15.90;;;-5.10;81.90;;;;;;4964047;28;20051;-85
2021/01/16 08:14:08;;;;;;;46.70;17.55;;;-5.10;81.90;;;;;;4937692;29;20039;-82
2021/01/16 08:16:35;;;;;;;51.35;20.60;;;-5.10;81.80;;;;;;4968661;28;20019;-83
2021/01/16 08:19:27;;;;;;;38.25;15.30;;;-5.10;81.60;;;;;;4956405;28;20031;-85
2021/01/16 08:21:57;;;;;;;30.98;12.55;;;-5.10;81.40;;;;;;4972423;28;20027;-85
2021/01/16 08:24:29;;;;;;;36.05;16.05;;;-5.00;81.40;;;;;;4972332;28;20062;-84
2021/01/16 08:26:58;;;;;;;42.85;19.88;;;-5.00;81.50;;;;;;4974811;28;20089;-84
2021/01/16 08:29:25;;;;;;;38.13;17.00;;;-5.00;82.10;;;;;;4969024;28;20035;-85
2021/01/16 08:32:09;;;;;;;34.15;15.35;;;-4.90;81.70;;;;;;4961290;28;20105;-84
2021/01/16 08:34:53;;;;;;;38.78;17.20;;;-4.90;81.80;;;;;;4973540;28;20027;-82
2021/01/16 08:37:38;;;;;;;36.90;17.08;;;-4.80;81.90;;;;;;4974338;28;20023;-84
2021/01/16 08:40:09;;;;;;;43.63;18.08;;;-4.60;82.40;;;;;;4973619;28;20382;-84
2021/01/16 08:42:49;;;;;;;33.38;15.52;;;-4.30;83.10;;;;;;4973592;28;20118;-85
2021/01/16 08:45:36;;;;;;;33.95;16.90;;;-3.90;84.00;;;;;;4984519;28;20504;-82
2021/01/16 08:48:02;;;;;;;33.03;15.65;;;-3.30;84.50;;;;;;4972711;28;20023;-85
2021/01/16 08:50:33;;;;;;;33.90;14.73;;;-2.80;84.20;;;;;;4973073;28;20142;-84
2021/01/16 08:53:22;;;;;;;42.83;19.27;;;-2.40;83.50;;;;;;4974224;28;20027;-84
2021/01/16 08:55:48;;;;;;;43.28;19.70;;;-2.10;82.40;;;;;;4981894;28;20061;-84
2021/01/16 08:58:14;;;;;;;33.55;15.65;;;-1.80;81.70;;;;;;4973841;28;20031;-84
2021/01/16 09:00:40;;;;;;;36.72;17.40;;;-1.70;80.30;;;;;;4974353;28;20099;-85
2021/01/16 09:03:19;;;;;;;26.58;14.45;;;-1.70;79.20;;;;;;4974462;28;20042;-85
2021/01/16 09:05:47;;;;;;;29.42;15.45;;;-1.80;78.30;;;;;;4974320;28;20277;-85
2021/01/16 09:08:24;;;;;;;32.50;15.02;;;-1.90;77.70;;;;;;4988725;28;20033;-85
2021/01/16 09:10:51;;;;;;;37.03;17.27;;;-2.10;77.20;;;;;;4973677;28;20031;-84
2021/01/16 09:13:44;;;;;;;29.25;14.55;;;-2.30;77.00;;;;;;4974369;28;20023;-84
2021/01/16 09:16:31;;;;;;;27.48;14.07;;;-2.40;77.10;;;;;;4972749;28;20121;-83
2021/01/16 09:18:57;;;;;;;25.85;13.35;;;-2.40;77.40;;;;;;4972062;28;20061;-85
2021/01/16 09:21:24;;;;;;;24.80;12.57;;;-2.30;77.90;;;;;;4973664;28;20054;-84
2021/01/16 09:23:50;;;;;;;23.25;12.77;;;-2.10;78.30;;;;;;4976774;28;20082;-84
2021/01/16 09:26:18;;;;;;;26.85;13.40;;;-1.80;78.60;;;;;;4979072;28;20042;-84
2021/01/16 09:29:00;;;;;;;33.80;20.10;;;-1.50;78.30;;;;;;4978310;28;20466;-83
2021/01/16 09:31:26;;;;;;;;;;;-1.20;78.20;;;;;;4980723;28;20073;-83
2021/01/16 09:33:54;;;;;;;32.78;15.70;;;-0.80;78.30;;;;;;4998774;28;20380;-84
2021/01/16 09:36:46;;;;;;;41.10;20.23;;;-0.60;78.10;;;;;;4999634;28;20022;-83
2021/01/16 09:39:22;;;;;;;40.23;16.70;;;-0.30;77.50;;;;;;4998908;28;20552;-83
2021/01/16 09:41:51;;;;;;;28.17;15.48;;;-0.20;76.50;;;;;;4998999;28;20085;-84
2021/01/16 09:44:39;;;;;;;29.08;16.02;;;-0.30;75.40;;;;;;4999339;28;20108;-84
2021/01/16 09:47:25;;;;;;;28.83;15.38;;;-0.50;74.60;;;;;;4982246;28;20030;-83
2021/01/16 09:49:52;;;;;;;25.70;14.43;;;-0.60;74.40;;;;;;5000812;28;20053;-84
2021/01/16 09:52:21;;;;;;;32.90;15.48;;;-0.80;74.20;;;;;;5000528;28;20349;-85
2021/01/16 09:54:50;;;;;;;28.77;15.73;;;-0.90;74.40;;;;;;4989076;28;20027;-84
2021/01/16 09:57:43;;;;;;;28.08;14.55;;;-1.00;74.30;;;;;;4961896;28;20039;-84
2021/01/16 10:00:13;;;;;;;24.30;13.70;;;-1.00;74.30;;;;;;4979892;28;20029;-85
2021/01/16 10:02:43;;;;;;;19.63;9.82;;;-1.10;74.00;;;;;;4979793;28;20023;-83
2021/01/16 10:05:14;;;;;;;19.50;9.23;;;-1.20;73.60;;;;;;4979900;28;20026;-85
2021/01/16 10:07:40;;;;;;;23.15;10.95;;;-1.40;72.30;;;;;;4979554;28;20106;-85
2021/01/16 10:10:25;;;;;;;23.35;10.95;;;-1.60;71.90;;;;;;4962403;28;20126;-84
2021/01/16 10:13:01;;;;;;;19.73;10.52;;;-1.90;72.10;;;;;;4961647;28;20033;-85
2021/01/16 10:15:32;;;;;;;21.33;10.25;;;-1.70;73.50;;;;;;4978481;28;20027;-84
2021/01/16 10:17:58;;;;;;;21.60;10.07;;;-1.40;74.60;;;;;;4980084;28;20105;-86
2021/01/16 10:20:35;;;;;;;20.33;10.45;;;-1.00;73.60;;;;;;4979358;28;20291;-84
2021/01/16 10:23:05;;;;;;;22.30;9.85;;;-0.90;71.90;;;;;;4962088;28;20042;-83
2021/01/16 10:25:42;;;;;;;19.95;10.00;;;-1.00;70.80;;;;;;4979758;28;20022;-84
2021/01/16 10:28:25;;;;;;;17.85;9.07;;;-1.10;70.80;;;;;;4980237;28;20050;-85
2021/01/16 10:31:11;;;;;;;22.88;11.57;;;-1.20;70.00;;;;;;4980096;28;20050;-84
2021/01/16 10:33:45;;;;;;;18.95;9.70;;;-1.20;70.30;;;;;;4962564;28;20486;-84
2021/01/16 10:36:14;;;;;;;15.73;8.90;;;-1.10;71.10;;;;;;4975654;28;20026;-83
2021/01/16 10:38:40;;;;;;;22.92;10.00;;;-1.00;70.30;;;;;;4958810;28;20041;-82
2021/01/16 10:41:10;;;;;;;22.10;9.63;;;-0.90;70.40;;;;;;4976021;28;20381;-82
2021/01/16 10:43:36;;;;;;;21.33;9.70;;;-0.60;70.40;;;;;;4976722;28;20034;-84
2021/01/16 10:46:32;;;;;;;21.88;11.00;;;0.00;70.70;;;;;;4976347;28;20073;-83
2021/01/16 10:49:21;;;;;;;22.40;10.88;;;0.60;69.60;;;;;;4976534;28;20477;-83
2021/01/16 10:51:59;;;;;;;19.75;9.32;;;1.20;68.80;;;;;;4959068;28;20019;-83
2021/01/16 10:54:25;;;;;;;24.88;8.90;;;1.80;68.10;;;;;;4974559;28;20034;-83
2021/01/16 10:57:04;;;;;;;21.42;10.77;;;2.10;66.40;;;;;;4976195;28;20034;-82
2021/01/16 10:59:32;;;;;;;20.63;11.07;;;1.80;63.40;;;;;;4975738;28;20512;-85
2021/01/16 11:01:59;;;;;;;20.20;10.10;;;1.40;62.80;;;;;;4975742;28;20082;-83
2021/01/16 11:04:29;;;;;;;21.98;9.57;;;0.90;62.50;;;;;;4981818;28;20086;-82
2021/01/16 11:06:59;;;;;;;20.42;10.23;;;0.60;62.60;;;;;;4977364;28;20060;-83
2021/01/16 11:09:34;;;;;;;20.80;10.40;;;0.30;62.90;;;;;;4977441;28;20034;-83
2021/01/16 11:12:05;;;;;;;20.88;9.40;;;0.00;63.00;;;;;;4975515;28;20035;-83
2021/01/16 11:14:42;;;;;;;25.95;10.30;;;-0.10;63.20;;;;;;4958991;28;20675;-83
2021/01/16 11:17:09;;;;;;;19.23;10.23;;;-0.30;62.20;;;;;;4957871;28;20037;-83
2021/01/16 11:19:40;;;;;;;22.27;10.77;;;-0.40;62.70;;;;;;4976120;28;20058;-84
2021/01/16 11:22:16;;;;;;;24.33;11.95;;;-0.50;62.90;;;;;;4976824;28;20836;-84
2021/01/16 11:24:54;;;;;;;22.75;11.27;;;-0.40;63.20;;;;;;4976408;28;20426;-82
2021/01/16 11:27:31;;;;;;;19.77;10.13;;;-0.40;62.60;;;;;;4958579;28;20039;-83
2021/01/16 11:30:53;;;;;;;;;;;;;;;;;;;;;
2021/01/16 11:34:08;;;;;;;25.03;10.40;;;-0.20;62.00;;;;;;4972253;28;20046;-83
2021/01/16 11:37:30;;;;;;;20.48;10.20;;;-0.40;60.60;;;;;;4964576;28;20832;-82
2021/01/16 11:40:21;;;;;;;20.40;11.57;;;-0.80;59.90;;;;;;4948727;28;20039;-85
2021/01/16 11:42:51;;;;;;;21.27;10.43;;;-1.40;60.00;;;;;;4975639;28;20031;-83
2021/01/16 11:45:18;;;;;;;20.15;9.93;;;-1.60;60.60;;;;;;4976385;28;20101;-85
2021/01/16 11:47:58;;;;;;;23.65;10.38;;;-1.90;60.90;;;;;;4958332;28;20031;-87
2021/01/16 11:50:26;;;;;;;22.20;10.52;;;-1.90;61.60;;;;;;4973723;28;20381;-83
2021/01/16 11:52:52;;;;;;;27.33;10.40;;;-1.90;61.40;;;;;;4975025;28;20477;-83
2021/01/16 11:55:20;;;;;;;29.65;11.93;;;-2.00;61.00;;;;;;4974174;28;20034;-83
2021/01/16 11:57:46;;;;;;;25.35;11.20;;;-2.20;60.70;;;;;;4972831;28;20054;-82
2021/01/16 12:00:22;;;;;;;23.92;10.68;;;-2.40;60.40;;;;;;4974850;28;20034;-84
2021/01/16 12:02:50;;;;;;;21.92;9.98;;;-2.60;60.40;;;;;;4957410;28;20059;-83
2021/01/16 12:05:23;;;;;;;18.23;9.98;;;-2.70;60.50;;;;;;4974941;28;20335;-86
2021/01/16 12:07:54;;;;;;;26.80;11.00;;;-2.70;60.60;;;;;;4974381;28;20085;-85
2021/01/16 12:10:28;;;;;;;25.25;10.55;;;-2.60;60.80;;;;;;4975239;28;20097;-83
2021/01/16 12:12:55;;;;;;;22.25;10.18;;;-2.50;60.70;;;;;;4974946;28;20030;-84
2021/01/16 12:15:27;;;;;;;23.58;11.50;;;-2.60;60.40;;;;;;4974728;28;20477;-85
2021/01/16 12:17:57;;;;;;;;;;;-2.70;60.00;;;;;;4977397;28;20030;-84
2021/01/16 12:20:27;;;;;;;22.02;9.27;;;-2.80;59.90;;;;;;4989141;28;19905;-84
2021/01/16 12:22:58;;;;;;;49.20;23.80;;;-3.00;60.00;;;;;;4990385;28;20019;-84
2021/01/16 12:25:35;;;;;;;23.23;9.95;;;-3.30;59.50;;;;;;4972726;28;20019;-85
2021/01/16 12:28:05;;;;;;;20.48;10.00;;;-3.60;59.30;;;;;;4974930;28;20027;-85
2021/01/16 12:30:36;;;;;;;23.60;9.80;;;-3.90;58.90;;;;;;4974947;28;20026;-83
2021/01/16 12:33:05;;;;;;;20.45;9.38;;;-4.30;58.90;;;;;;4974942;28;20053;-83
2021/01/16 12:35:31;;;;;;;19.65;10.07;;;-4.50;59.30;;;;;;4974771;28;20481;-83
2021/01/16 12:37:57;;;;;;;18.27;9.18;;;-4.70;59.50;;;;;;4957625;28;20086;-85
2021/01/16 12:40:27;;;;;;;22.80;9.90;;;-4.80;59.80;;;;;;4974617;28;20030;-84
2021/01/16 12:42:56;;;;;;;23.42;10.55;;;-4.90;60.30;;;;;;4974739;28;20026;-84
2021/01/16 12:45:24;;;;;;;22.90;10.30;;;-5.00;60.60;;;;;;4974817;28;20098;-83
2021/01/16 12:47:53;;;;;;;24.70;10.30;;;-5.00;60.60;;;;;;4956724;28;20114;-83
2021/01/16 12:50:22;;;;;;;27.35;11.27;;;-5.00;60.70;;;;;;4957288;28;20027;-84
2021/01/16 12:52:56;;;;;;;28.98;10.88;;;-5.10;60.30;;;;;;4957610;28;20118;-83